Lowell, Wisconsin
Current Conditions -  °F | °C
As of 7:55 PM on Friday 24 Oct 2014 (Local Time) from KUNU Reporting Station
Overcast Overcast  
Wind Chill: 54°   Ceiling: 3300
Heat Index: 54°   Visibility: 10mi
Dew Point: 50°   Wind: 6mph
Humidity: 86%   Direction: 170°S
Pressure: 29.93"   Gusts: NA
Location:  43.34°N, 88.82°W
Report Text: KUNU 250055Z AUTO 17005KT 10SM OVC033 12/10 A2993 RMK AO2 T01220100
Loading
Personal Weather Stations






























Interactive Weather Map
Tropical Storm Tracking
New forecast layout! Learn more

10-Day Weather Forecast

Advertisements
Track Severe Weather on mobile